Arlington, CO

7:30 PM MDT on July 27, 2015 (GMT -0600)
NE Crowley County | | Change Station
CLOSE
Current Station
Personal Weather Station
Location: Sugar City, CO
Elevation: 4590 ft
Nearby Weather Stations

Elev 4590 ft 38.45 °N, 103.52 °W | Updated 39 seconds ago

Partly Cloudy
Partly Cloudy
91.6 °F
Feels Like 88 °F
N
11.0
Wind Variable Wind from SSW
Gusts 18.0 mph

Today
High -- | Low -- °F
--% Chance of Precip.
Yesterday
High -- | Low -- °F
Precip. -- in
5:51 AM 8:08 PM
Waxing Gibbous, 86% visible
Pressure 29.60 in
Visibility 10.0 miles
Clouds Few 7500 ft
Few 9000 ft
Scattered Clouds 11000 ft
Heat Index 88 °F
Dew Point 47 °F
Humidity 22%
Rainfall 0.00 in
Snow Depth Not available.
UV 1 out of 12
Pollen 6.00 out of 12
Air Quality Not available.
Flu Activity Not available.
METAR KLHX 280053Z AUTO 24011KT 10SM FEW075 FEW090 SCT110 32/13 A2982 RMK AO2 SLP021 T03220128

More Conditions Fewer Conditions

Pressure 29.60 in
Visibility 10.0 miles
Clouds Few 7500 ft
Few 9000 ft
Scattered Clouds 11000 ft
Heat Index 88 °F
Dew Point 47 °F
Humidity 22%
Rainfall 0.00 in
Snow Depth Not available.
UV 1 out of 12
Pollen 6.00 out of 12
Air Quality Not available.
Flu Activity Not available.
METAR KLHX 280053Z AUTO 24011KT 10SM FEW075 FEW090 SCT110 32/13 A2982 RMK AO2 SLP021 T03220128

More Conditions Fewer Conditions

10-Day Weather Forecast

×

Almanac

Astronomy

Jul. 27, 2015 Rise Set
Actual Time
Civil Twilight
Nautical Twilight
Astronomical Twilight
Moon
Length of Visible Light
Length of Day
Tomorrow will be .
, % of the Moon is Illuminated

Today's Extremes

State Highs State Lows

Community

WunderPhotos

Upload Photos

1,841,757 photos uploaded!

WunderBlogs® & News

Nearby

Air Quality

  Air Quality AQ Index Pollutant
Not available.

Snow Depth

Station Depth Elevation

Earthquake Activity

City Distance Mag. Time & Date
Minimum magnitude displayed is 2.5.

Coastal Water Temperatures

Place Temperature

Stations

Nearby Weather Stations

Station Location Temp. Windchill Dew Point Humidity Wind Precip. Elev Updated Type